createdAt,value
2023-04-19T00:01:50.097Z,16.53
2023-04-19T00:04:18.388Z,16.60
2023-04-19T00:06:47.295Z,16.53
2023-04-19T00:09:15.030Z,16.54
2023-04-19T00:11:42.694Z,16.54
2023-04-19T00:14:10.037Z,16.52
2023-04-19T00:16:37.343Z,16.35
2023-04-19T00:19:04.738Z,16.35
2023-04-19T00:21:32.140Z,16.44
2023-04-19T00:23:59.845Z,16.37
2023-04-19T00:26:27.718Z,16.35
2023-04-19T00:28:55.675Z,16.42
2023-04-19T00:31:23.151Z,16.43
2023-04-19T00:33:51.312Z,16.69
2023-04-19T00:36:19.264Z,16.69
2023-04-19T00:38:48.578Z,16.70
2023-04-19T00:41:16.432Z,16.79
2023-04-19T00:43:43.697Z,16.76
2023-04-19T00:46:11.503Z,16.85
2023-04-19T00:48:39.694Z,16.97
2023-04-19T00:51:10.454Z,16.96
2023-04-19T00:53:39.240Z,16.97
2023-04-19T00:56:07.263Z,17.05
2023-04-19T00:58:34.689Z,17.07
2023-04-19T01:01:04.646Z,17.10
2023-04-19T01:03:32.583Z,17.06
2023-04-19T01:06:00.310Z,17.02
2023-04-19T01:08:27.980Z,17.17
2023-04-19T01:10:55.425Z,17.23
2023-04-19T01:13:22.815Z,17.31
2023-04-19T01:15:51.641Z,17.25
2023-04-19T01:18:21.919Z,17.29
2023-04-19T01:20:49.692Z,17.19
2023-04-19T01:23:17.224Z,17.20
2023-04-19T01:25:45.033Z,17.10
2023-04-19T01:28:12.916Z,17.17
2023-04-19T01:30:40.673Z,17.14
2023-04-19T01:33:08.067Z,17.14
2023-04-19T01:35:35.427Z,17.16
2023-04-19T01:38:03.502Z,17.19
2023-04-19T01:40:30.882Z,17.18
2023-04-19T01:42:58.823Z,17.12
2023-04-19T01:45:26.759Z,17.01
2023-04-19T01:47:54.473Z,17.05
2023-04-19T01:50:22.419Z,17.11
2023-04-19T01:52:49.724Z,16.88
2023-04-19T01:55:18.058Z,16.89
2023-04-19T01:57:46.034Z,17.00
2023-04-19T02:00:13.627Z,16.93
2023-04-19T02:02:44.316Z,17.02
2023-04-19T02:05:11.815Z,17.06
2023-04-19T02:07:39.745Z,17.07
2023-04-19T02:10:09.917Z,17.03
2023-04-19T02:12:37.956Z,17.03
2023-04-19T02:15:05.698Z,16.97
2023-04-19T02:17:36.279Z,16.96
2023-04-19T02:20:04.787Z,16.97
2023-04-19T02:22:32.438Z,16.85
2023-04-19T02:24:59.748Z,16.77
2023-04-19T02:27:32.267Z,16.76
2023-04-19T02:30:00.430Z,16.74
2023-04-19T02:32:28.478Z,16.74
2023-04-19T02:34:56.410Z,16.81
2023-04-19T02:37:23.786Z,16.89
2023-04-19T02:39:51.597Z,16.90
2023-04-19T02:42:18.831Z,16.99
2023-04-19T02:44:46.153Z,16.71
2023-04-19T02:47:13.509Z,16.66
2023-04-19T02:49:41.574Z,16.73
2023-04-19T02:52:10.990Z,16.57
2023-04-19T02:54:41.669Z,16.63
2023-04-19T02:57:09.449Z,16.61
2023-04-19T02:59:37.826Z,16.47
2023-04-19T03:02:05.738Z,16.59
2023-04-19T03:04:33.224Z,16.54
2023-04-19T03:07:01.462Z,16.24
2023-04-19T03:09:28.904Z,16.31
2023-04-19T03:11:56.308Z,16.42
2023-04-19T03:14:23.579Z,16.24
2023-04-19T03:16:51.195Z,16.14
2023-04-19T03:19:19.453Z,16.10
2023-04-19T03:21:51.678Z,16.15
2023-04-19T03:24:27.310Z,16.27
2023-04-19T03:26:54.913Z,16.26
2023-04-19T03:29:26.857Z,16.22
2023-04-19T03:32:01.259Z,16.33
2023-04-19T03:34:30.383Z,16.26
2023-04-19T03:36:58.268Z,16.24
2023-04-19T03:39:25.617Z,16.13
2023-04-19T03:41:58.303Z,16.08
2023-04-19T03:44:46.184Z,16.04
2023-04-19T03:47:15.787Z,16.01
2023-04-19T03:49:46.395Z,15.87
2023-04-19T03:52:14.210Z,15.86
2023-04-19T03:54:41.452Z,15.80
2023-04-19T03:57:17.766Z,15.63
2023-04-19T03:59:45.697Z,15.58
2023-04-19T04:02:13.158Z,15.57
2023-04-19T04:04:41.302Z,15.56
2023-04-19T04:07:09.081Z,15.71
2023-04-19T04:09:36.323Z,15.63
2023-04-19T04:12:03.726Z,15.55
2023-04-19T04:14:32.013Z,15.58
2023-04-19T04:17:00.920Z,15.70
2023-04-19T04:19:28.359Z,15.59
2023-04-19T04:21:55.990Z,15.57
2023-04-19T04:24:24.442Z,15.45
2023-04-19T04:27:20.367Z,15.41
2023-04-19T04:29:49.683Z,15.40
2023-04-19T04:32:18.315Z,15.15
2023-04-19T04:34:47.586Z,15.20
2023-04-19T04:37:24.388Z,15.17
2023-04-19T04:39:52.811Z,15.11
2023-04-19T04:42:21.640Z,15.21
2023-04-19T04:44:50.988Z,15.22
2023-04-19T04:47:18.265Z,15.23
2023-04-19T04:49:53.068Z,15.18
2023-04-19T04:52:20.464Z,15.00
2023-04-19T04:55:01.857Z,15.02
2023-04-19T04:57:33.379Z,14.78
2023-04-19T05:00:02.424Z,14.78
2023-04-19T05:02:36.763Z,14.80
2023-04-19T05:05:04.361Z,14.86
2023-04-19T05:07:33.499Z,14.88
2023-04-19T05:10:02.784Z,14.92
2023-04-19T05:12:39.150Z,15.07
2023-04-19T05:15:06.951Z,15.07
2023-04-19T05:17:34.897Z,15.11
2023-04-19T05:20:02.489Z,15.28
2023-04-19T05:22:31.052Z,15.53
2023-04-19T05:24:59.131Z,15.73
2023-04-19T05:27:26.789Z,15.82
2023-04-19T05:29:54.581Z,15.76
2023-04-19T05:32:23.127Z,15.69
2023-04-19T05:34:54.959Z,15.83
2023-04-19T05:37:26.966Z,16.01
2023-04-19T05:39:54.398Z,15.87
2023-04-19T05:42:21.776Z,16.07
2023-04-19T05:44:49.490Z,16.13
2023-04-19T05:47:17.713Z,16.27
2023-04-19T05:49:58.352Z,16.37
2023-04-19T05:52:31.150Z,16.48
2023-04-19T05:55:00.427Z,16.65
2023-04-19T05:57:28.811Z,16.72
2023-04-19T05:59:56.992Z,16.72
2023-04-19T06:02:29.578Z,16.95
2023-04-19T06:05:09.312Z,17.08
2023-04-19T06:07:43.135Z,17.63
2023-04-19T06:10:17.811Z,18.05
2023-04-19T06:12:45.835Z,18.31
2023-04-19T06:15:13.603Z,18.34
2023-04-19T06:17:42.279Z,18.57
2023-04-19T06:20:10.291Z,18.75
2023-04-19T06:22:45.228Z,18.97
2023-04-19T06:25:12.860Z,19.07
2023-04-19T06:27:40.774Z,18.81
2023-04-19T06:30:08.837Z,19.41
2023-04-19T06:32:36.673Z,19.34
2023-04-19T06:35:06.306Z,19.18
2023-04-19T06:37:34.036Z,19.06
2023-04-19T06:40:02.133Z,18.43
2023-04-19T06:42:29.578Z,18.28
2023-04-19T06:44:57.502Z,18.31
2023-04-19T06:47:24.863Z,18.51
2023-04-19T06:49:52.196Z,18.52
2023-04-19T06:52:19.688Z,18.23
2023-04-19T06:54:50.961Z,18.38
2023-04-19T06:57:19.325Z,18.10
2023-04-19T06:59:47.259Z,18.09
2023-04-19T07:02:14.512Z,18.25
2023-04-19T07:04:42.718Z,18.20
2023-04-19T07:07:10.275Z,18.26
2023-04-19T07:09:37.914Z,18.11
2023-04-19T07:12:06.194Z,17.68
2023-04-19T07:14:34.302Z,18.06
2023-04-19T07:17:04.483Z,18.56
2023-04-19T07:19:31.896Z,18.79
2023-04-19T07:21:59.455Z,18.94
2023-04-19T07:24:29.701Z,19.46
2023-04-19T07:26:57.913Z,19.64
2023-04-19T07:29:25.273Z,20.21
2023-04-19T07:31:55.427Z,19.92
2023-04-19T07:34:22.884Z,19.75
2023-04-19T07:36:50.494Z,19.84
2023-04-19T07:39:17.754Z,20.26
2023-04-19T07:41:51.927Z,19.92
2023-04-19T07:44:20.794Z,20.38
2023-04-19T07:46:48.432Z,19.60
2023-04-19T07:49:15.798Z,20.13
2023-04-19T07:51:43.876Z,20.40
2023-04-19T07:54:12.542Z,20.29
2023-04-19T07:56:40.216Z,19.66
2023-04-19T07:59:09.309Z,20.45
2023-04-19T08:01:37.218Z,20.23
2023-04-19T08:04:05.312Z,20.64
2023-04-19T08:06:33.285Z,21.01
2023-04-19T08:09:01.122Z,19.70
2023-04-19T08:11:28.522Z,20.03
2023-04-19T08:14:08.823Z,20.33
2023-04-19T08:17:19.238Z,19.56
2023-04-19T08:19:31.396Z,20.30
2023-04-19T08:21:59.632Z,20.93
2023-04-19T08:24:26.985Z,20.76
2023-04-19T08:26:54.656Z,20.83
2023-04-19T08:29:22.316Z,21.50
2023-04-19T08:31:50.058Z,21.48
2023-04-19T08:34:17.639Z,21.89
2023-04-19T08:36:55.940Z,20.31
2023-04-19T08:39:33.677Z,21.39
2023-04-19T08:42:08.618Z,21.24
2023-04-19T08:44:53.695Z,23.08
2023-04-19T08:47:30.815Z,21.54
2023-04-19T08:50:17.359Z,21.82
2023-04-19T08:52:57.372Z,21.91
2023-04-19T08:55:29.506Z,22.38
2023-04-19T08:57:58.656Z,21.43
2023-04-19T09:00:26.496Z,20.42
2023-04-19T09:02:57.655Z,21.65
2023-04-19T09:05:25.241Z,21.65
2023-04-19T09:07:52.812Z,22.28
2023-04-19T09:10:20.900Z,22.77
2023-04-19T09:13:02.297Z,21.39
2023-04-19T09:15:40.781Z,21.07
2023-04-19T09:18:10.074Z,21.49
2023-04-19T09:20:38.948Z,21.28
2023-04-19T09:23:08.297Z,21.96
2023-04-19T09:25:55.393Z,22.35
2023-04-19T09:28:24.481Z,22.25
2023-04-19T09:33:32.137Z,22.37
2023-04-19T09:36:00.286Z,23.11
2023-04-19T09:38:28.211Z,22.90
2023-04-19T09:41:15.894Z,22.85
2023-04-19T09:46:30.443Z,23.11
2023-04-19T09:49:25.333Z,23.21
2023-04-19T09:51:59.050Z,23.42
2023-04-19T09:54:30.505Z,22.30
2023-04-19T09:57:00.862Z,22.21
2023-04-19T09:59:28.785Z,23.78
2023-04-19T10:01:56.661Z,23.34
2023-04-19T10:04:29.408Z,23.51
2023-04-19T10:07:25.280Z,23.81
2023-04-19T10:10:05.015Z,23.43
2023-04-19T10:12:59.030Z,22.41
2023-04-19T10:15:33.780Z,23.36
2023-04-19T10:18:08.224Z,23.89
2023-04-19T10:20:54.941Z,23.89
2023-04-19T10:23:23.126Z,24.29
2023-04-19T10:25:55.750Z,23.19
2023-04-19T10:28:23.736Z,24.90
2023-04-19T10:30:55.806Z,25.24
2023-04-19T10:36:19.268Z,27.51
2023-04-19T10:38:51.483Z,28.55
2023-04-19T10:41:19.372Z,28.47
2023-04-19T10:43:56.698Z,27.48
2023-04-19T10:46:29.246Z,25.36
2023-04-19T10:49:03.772Z,25.35
2023-04-19T10:51:36.273Z,26.55
2023-04-19T10:54:03.565Z,28.62
2023-04-19T10:56:34.437Z,27.10
2023-04-19T10:59:12.404Z,28.04
2023-04-19T11:01:45.375Z,29.24
2023-04-19T11:04:14.541Z,29.80
2023-04-19T11:06:52.491Z,30.89
2023-04-19T11:09:25.766Z,29.24
2023-04-19T11:11:54.456Z,28.18
2023-04-19T11:14:25.401Z,27.69
2023-04-19T11:16:52.717Z,28.40
2023-04-19T11:19:20.587Z,29.26
2023-04-19T11:21:48.768Z,27.87
2023-04-19T11:24:18.830Z,26.73
2023-04-19T11:26:47.243Z,25.70
2023-04-19T11:29:15.615Z,25.11
2023-04-19T11:31:46.703Z,23.42
2023-04-19T11:34:15.343Z,23.93
2023-04-19T11:36:52.634Z,24.37
2023-04-19T11:39:21.834Z,24.34
2023-04-19T11:41:49.150Z,25.80
2023-04-19T11:44:20.110Z,24.69
2023-04-19T11:47:01.411Z,25.86
2023-04-19T11:49:30.293Z,29.54
2023-04-19T11:52:03.070Z,29.32
2023-04-19T11:54:33.637Z,26.94
2023-04-19T11:57:03.591Z,27.07
2023-04-19T11:59:32.354Z,29.05
2023-04-19T12:02:10.425Z,29.39
2023-04-19T12:04:39.725Z,30.04
2023-04-19T12:07:07.568Z,28.64
2023-04-19T12:09:36.612Z,28.53
2023-04-19T12:12:04.171Z,27.66
2023-04-19T12:14:31.674Z,27.63
2023-04-19T12:17:05.606Z,25.76
2023-04-19T12:19:42.955Z,25.71
2023-04-19T12:22:12.690Z,27.80
2023-04-19T12:24:40.856Z,30.40
2023-04-19T12:27:08.436Z,29.53
2023-04-19T12:29:36.189Z,29.87
2023-04-19T12:32:04.122Z,32.19
2023-04-19T12:34:32.111Z,31.13
2023-04-19T12:36:59.530Z,30.93
2023-04-19T12:39:28.841Z,30.86
2023-04-19T12:41:57.428Z,27.35
2023-04-19T12:44:25.227Z,29.51
2023-04-19T12:46:55.271Z,31.89
2023-04-19T12:49:22.901Z,32.26
2023-04-19T12:51:50.772Z,30.41
2023-04-19T12:54:18.524Z,29.47
2023-04-19T12:56:46.319Z,30.02
2023-04-19T12:59:14.205Z,33.11
2023-04-19T13:01:42.053Z,35.22
2023-04-19T13:04:12.113Z,36.91
2023-04-19T13:06:40.817Z,32.33
2023-04-19T13:09:14.304Z,30.81
2023-04-19T13:11:42.670Z,29.97
2023-04-19T13:14:11.050Z,26.73
2023-04-19T13:16:38.463Z,25.85
2023-04-19T13:19:06.443Z,25.39
2023-04-19T13:21:33.726Z,24.91
2023-04-19T13:24:01.422Z,25.78
2023-04-19T13:26:29.452Z,25.78
2023-04-19T13:28:57.311Z,24.83
2023-04-19T13:31:25.150Z,26.28
2023-04-19T13:33:52.779Z,25.68
2023-04-19T13:36:20.568Z,25.35
2023-04-19T13:38:48.464Z,26.24
2023-04-19T13:41:15.823Z,31.61
2023-04-19T13:43:43.548Z,34.95
2023-04-19T13:46:11.628Z,37.16
2023-04-19T13:48:38.899Z,37.97
2023-04-19T13:51:06.905Z,35.04
2023-04-19T13:53:35.057Z,30.81
2023-04-19T13:56:02.623Z,29.66
2023-04-19T13:58:29.959Z,28.22
2023-04-19T14:00:57.316Z,26.49
2023-04-19T14:03:25.517Z,26.76
2023-04-19T14:05:52.923Z,26.07
2023-04-19T14:08:21.034Z,25.59
2023-04-19T14:10:48.961Z,25.84
2023-04-19T14:13:16.450Z,26.04
2023-04-19T14:15:43.764Z,25.89
2023-04-19T14:18:11.703Z,25.79
2023-04-19T14:20:41.031Z,26.05
2023-04-19T14:23:09.451Z,24.96
2023-04-19T14:25:37.315Z,25.11
2023-04-19T14:28:04.732Z,26.08
2023-04-19T14:30:32.324Z,25.89
2023-04-19T14:32:59.668Z,27.18
2023-04-19T14:35:27.352Z,27.19
2023-04-19T14:37:55.159Z,25.93
2023-04-19T14:40:22.688Z,24.60
2023-04-19T14:42:50.318Z,27.05
2023-04-19T14:45:17.676Z,28.65
2023-04-19T14:47:45.421Z,31.11
2023-04-19T14:50:12.762Z,30.34
2023-04-19T14:52:39.997Z,31.82
2023-04-19T14:55:07.746Z,28.64
2023-04-19T14:57:35.071Z,27.13
2023-04-19T15:00:02.440Z,25.79
2023-04-19T15:02:30.286Z,29.07
2023-04-19T15:04:58.062Z,30.98
2023-04-19T15:07:26.317Z,29.76
2023-04-19T15:09:54.138Z,26.87
2023-04-19T15:12:21.490Z,25.39
2023-04-19T15:14:49.737Z,25.55
2023-04-19T15:17:17.129Z,25.82
2023-04-19T15:19:46.945Z,26.30
2023-04-19T15:22:14.343Z,26.77
2023-04-19T15:24:42.132Z,25.82
2023-04-19T15:27:09.487Z,24.88
2023-04-19T15:29:39.469Z,24.65
2023-04-19T15:32:06.942Z,26.04
2023-04-19T15:34:34.320Z,27.20
2023-04-19T15:37:02.388Z,27.26
2023-04-19T15:39:30.139Z,27.83
2023-04-19T15:41:58.649Z,28.66
2023-04-19T15:44:26.006Z,28.72
2023-04-19T15:46:53.707Z,27.42
2023-04-19T15:49:20.978Z,28.17
2023-04-19T15:51:48.949Z,29.67
2023-04-19T15:54:16.469Z,29.14
2023-04-19T15:56:44.259Z,29.05
2023-04-19T15:59:11.672Z,27.63
2023-04-19T16:01:39.369Z,25.75
2023-04-19T16:04:07.015Z,25.03
2023-04-19T16:06:34.857Z,23.97
2023-04-19T16:09:02.156Z,23.08
2023-04-19T16:11:30.632Z,22.33
2023-04-19T16:13:58.522Z,21.69
2023-04-19T16:16:27.100Z,21.14
2023-04-19T16:18:54.418Z,21.29
2023-04-19T16:21:22.327Z,21.27
2023-04-19T16:23:49.664Z,20.86
2023-04-19T16:26:16.941Z,20.90
2023-04-19T16:28:44.704Z,20.68
2023-04-19T16:31:12.244Z,20.73
2023-04-19T16:33:39.479Z,20.40
2023-04-19T16:36:06.895Z,20.67
2023-04-19T16:38:34.726Z,20.68
2023-04-19T16:41:04.619Z,20.64
2023-04-19T16:43:32.572Z,20.48
2023-04-19T16:46:00.365Z,20.64
2023-04-19T16:48:27.906Z,20.43
2023-04-19T16:50:55.488Z,20.40
2023-04-19T16:53:23.054Z,20.08
2023-04-19T16:55:50.689Z,20.00
2023-04-19T16:58:18.436Z,19.84
2023-04-19T17:00:46.482Z,19.86
2023-04-19T17:03:14.424Z,19.62
2023-04-19T17:05:41.871Z,19.95
2023-04-19T17:08:11.095Z,19.95
2023-04-19T17:10:39.010Z,19.80
2023-04-19T17:13:06.386Z,19.75
2023-04-19T17:15:34.313Z,19.75
2023-04-19T17:18:02.360Z,19.64
2023-04-19T17:20:29.804Z,19.68
2023-04-19T17:22:57.141Z,19.59
2023-04-19T17:25:24.483Z,19.47
2023-04-19T17:27:52.774Z,19.28
2023-04-19T17:30:20.133Z,19.00
2023-04-19T17:32:47.530Z,18.87
2023-04-19T17:35:15.035Z,18.56
2023-04-19T17:37:43.819Z,18.47
2023-04-19T17:40:11.453Z,18.33
2023-04-19T17:42:38.830Z,18.37
2023-04-19T17:45:11.044Z,18.22
2023-04-19T17:47:39.566Z,17.54
2023-04-19T17:50:08.152Z,17.58
2023-04-19T17:52:35.528Z,17.01
2023-04-19T17:55:04.704Z,16.99
2023-04-19T17:57:33.814Z,16.91
2023-04-19T18:00:06.069Z,16.47
2023-04-19T18:02:36.870Z,15.93
2023-04-19T18:05:04.915Z,15.67
2023-04-19T18:07:33.375Z,15.36
2023-04-19T18:10:00.851Z,15.28
2023-04-19T18:12:28.731Z,15.23
2023-04-19T18:14:56.454Z,15.17
2023-04-19T18:17:24.500Z,15.47
2023-04-19T18:19:52.282Z,15.75
2023-04-19T18:22:19.670Z,15.83
2023-04-19T18:24:47.553Z,15.51
2023-04-19T18:27:14.839Z,15.84
2023-04-19T18:29:42.167Z,15.91
2023-04-19T18:32:10.509Z,16.02
2023-04-19T18:34:38.296Z,16.09
2023-04-19T18:37:14.511Z,16.18
2023-04-19T18:39:42.577Z,16.28
2023-04-19T18:42:10.941Z,16.13
2023-04-19T18:44:52.836Z,15.83
2023-04-19T18:47:21.725Z,16.00
2023-04-19T18:50:02.807Z,16.03
2023-04-19T18:52:31.677Z,15.61
2023-04-19T18:54:59.581Z,15.81
2023-04-19T18:57:28.010Z,15.86
2023-04-19T18:59:56.241Z,15.68
2023-04-19T19:02:24.280Z,15.82
2023-04-19T19:04:57.865Z,15.69
2023-04-19T19:07:36.097Z,15.99
2023-04-19T19:10:17.017Z,15.90
2023-04-19T19:12:47.270Z,15.78
2023-04-19T19:15:15.122Z,15.73
2023-04-19T19:17:43.730Z,15.73
2023-04-19T19:20:12.170Z,15.57
2023-04-19T19:22:40.337Z,15.58
2023-04-19T19:25:08.455Z,15.69
2023-04-19T19:27:37.853Z,15.74
2023-04-19T19:30:07.863Z,15.75
2023-04-19T19:32:35.920Z,15.64
2023-04-19T19:35:05.587Z,15.44
2023-04-19T19:37:36.773Z,15.51
2023-04-19T19:40:06.653Z,15.59
2023-04-19T19:42:35.215Z,15.57
2023-04-19T19:45:04.177Z,15.83
2023-04-19T19:47:35.218Z,16.04
2023-04-19T19:52:37.495Z,16.12
2023-04-19T19:55:06.419Z,16.03
2023-04-19T20:00:31.796Z,15.89
2023-04-19T20:02:59.267Z,15.78
2023-04-19T20:05:27.625Z,15.58
2023-04-19T20:08:05.771Z,15.67
2023-04-19T20:10:33.444Z,15.81
2023-04-19T20:13:01.719Z,15.97
2023-04-19T20:15:30.302Z,16.03
2023-04-19T20:17:58.143Z,15.95
2023-04-19T20:20:26.385Z,15.87
2023-04-19T20:22:53.847Z,15.63
2023-04-19T20:25:21.596Z,15.48
2023-04-19T20:27:49.297Z,15.81
2023-04-19T20:30:16.606Z,15.97
2023-04-19T20:32:44.120Z,15.88
2023-04-19T20:35:12.457Z,15.83
2023-04-19T20:37:40.641Z,15.68
2023-04-19T20:40:11.254Z,15.52
2023-04-19T20:42:38.800Z,15.62
2023-04-19T20:45:14.418Z,15.49
2023-04-19T20:47:43.073Z,15.51
2023-04-19T20:50:11.298Z,15.51
2023-04-19T20:52:38.905Z,15.42
2023-04-19T20:55:07.087Z,15.22
2023-04-19T20:57:34.786Z,15.14
2023-04-19T21:00:02.491Z,15.22
2023-04-19T21:02:32.173Z,15.26
2023-04-19T21:04:59.874Z,15.00
2023-04-19T21:07:27.403Z,15.03
2023-04-19T21:09:54.733Z,14.99
2023-04-19T21:12:22.016Z,14.98
2023-04-19T21:14:52.326Z,15.06
2023-04-19T21:17:20.247Z,15.15
2023-04-19T21:19:48.064Z,14.96
2023-04-19T21:22:15.356Z,15.13
2023-04-19T21:24:43.323Z,15.17
2023-04-19T21:27:11.321Z,15.15
2023-04-19T21:29:39.324Z,15.00
2023-04-19T21:32:06.729Z,14.98
2023-04-19T21:34:34.491Z,15.06
2023-04-19T21:37:02.829Z,14.91
2023-04-19T21:39:30.331Z,14.98
2023-04-19T21:41:57.594Z,15.13
2023-04-19T21:44:25.568Z,14.89
2023-04-19T21:46:53.369Z,14.88
2023-04-19T21:49:21.602Z,14.85
2023-04-19T21:51:49.054Z,14.89
2023-04-19T21:54:26.469Z,14.93
2023-04-19T21:57:00.742Z,15.06
2023-04-19T21:59:28.447Z,15.08
2023-04-19T22:01:56.352Z,15.11
2023-04-19T22:04:24.270Z,15.34
2023-04-19T22:06:51.604Z,15.44
2023-04-19T22:09:19.513Z,15.11
2023-04-19T22:11:47.277Z,14.99
2023-04-19T22:14:14.591Z,14.96
2023-04-19T22:16:42.282Z,14.92
2023-04-19T22:19:10.061Z,14.98
2023-04-19T22:21:37.311Z,15.19
2023-04-19T22:24:05.433Z,15.39
2023-04-19T22:26:34.462Z,15.44
2023-04-19T22:29:02.193Z,15.39
2023-04-19T22:31:29.673Z,15.41
2023-04-19T22:33:57.527Z,15.55
2023-04-19T22:36:25.713Z,15.49
2023-04-19T22:38:53.021Z,15.42
2023-04-19T22:41:20.385Z,15.40
2023-04-19T22:43:47.869Z,15.42
2023-04-19T22:46:15.741Z,15.44
2023-04-19T22:48:43.077Z,15.35
2023-04-19T22:51:10.635Z,15.35
2023-04-19T22:53:39.075Z,15.43
2023-04-19T22:56:06.931Z,15.40
2023-04-19T22:58:34.160Z,15.35
2023-04-19T23:01:02.300Z,15.28
2023-04-19T23:03:30.136Z,15.24
2023-04-19T23:05:57.581Z,15.06
2023-04-19T23:08:25.168Z,15.08
2023-04-19T23:10:53.838Z,15.20
2023-04-19T23:13:21.326Z,15.29
2023-04-19T23:15:49.102Z,15.38
2023-04-19T23:18:17.597Z,15.38
2023-04-19T23:20:44.844Z,15.30
2023-04-19T23:23:12.428Z,15.31
2023-04-19T23:25:40.302Z,15.25
2023-04-19T23:28:07.561Z,15.19
2023-04-19T23:30:34.881Z,15.26
2023-04-19T23:33:02.386Z,15.12
2023-04-19T23:35:30.619Z,15.12
2023-04-19T23:37:58.727Z,15.11
2023-04-19T23:40:26.004Z,15.18
2023-04-19T23:42:53.249Z,15.16
2023-04-19T23:45:21.352Z,15.15
2023-04-19T23:47:49.008Z,15.06
2023-04-19T23:50:16.554Z,15.02
2023-04-19T23:52:43.865Z,15.00
2023-04-19T23:55:11.451Z,14.93
2023-04-19T23:57:39.418Z,14.90
